sensor_id;sensor_type;location;lat;lon;timestamp;temperature;humidity
4520;DHT22;2272;49.226;8.108;2023-01-08T00:00:56;7.60;99.90
4520;DHT22;2272;49.226;8.108;2023-01-08T00:03:23;7.60;99.90
4520;DHT22;2272;49.226;8.108;2023-01-08T00:05:50;7.60;99.90
4520;DHT22;2272;49.226;8.108;2023-01-08T00:08:16;7.60;99.90
4520;DHT22;2272;49.226;8.108;2023-01-08T00:10:43;7.60;99.90
4520;DHT22;2272;49.226;8.108;2023-01-08T00:13:10;7.60;99.90
4520;DHT22;2272;49.226;8.108;2023-01-08T00:15:38;7.60;99.90
4520;DHT22;2272;49.226;8.108;2023-01-08T00:18:05;7.60;99.90
4520;DHT22;2272;49.226;8.108;2023-01-08T00:20:31;7.60;99.90
4520;DHT22;2272;49.226;8.108;2023-01-08T00:22:58;7.60;99.90
4520;DHT22;2272;49.226;8.108;2023-01-08T00:25:24;7.60;99.90
4520;DHT22;2272;49.226;8.108;2023-01-08T00:27:51;7.60;99.90
4520;DHT22;2272;49.226;8.108;2023-01-08T00:30:18;7.60;99.90
4520;DHT22;2272;49.226;8.108;2023-01-08T00:32:46;7.60;99.90
4520;DHT22;2272;49.226;8.108;2023-01-08T00:35:12;7.60;99.90
4520;DHT22;2272;49.226;8.108;2023-01-08T00:37:39;7.60;99.90
4520;DHT22;2272;49.226;8.108;2023-01-08T00:40:07;7.60;99.90
4520;DHT22;2272;49.226;8.108;2023-01-08T00:42:34;7.60;99.90
4520;DHT22;2272;49.226;8.108;2023-01-08T00:45:00;7.70;99.90
4520;DHT22;2272;49.226;8.108;2023-01-08T00:47:27;7.70;99.90
4520;DHT22;2272;49.226;8.108;2023-01-08T00:49:55;7.70;99.90
4520;DHT22;2272;49.226;8.108;2023-01-08T00:52:22;7.70;99.90
4520;DHT22;2272;49.226;8.108;2023-01-08T00:54:48;7.70;99.90
4520;DHT22;2272;49.226;8.108;2023-01-08T00:57:15;7.60;99.90
4520;DHT22;2272;49.226;8.108;2023-01-08T00:59:42;7.70;99.90
4520;DHT22;2272;49.226;8.108;2023-01-08T01:02:08;7.60;99.90
4520;DHT22;2272;49.226;8.108;2023-01-08T01:04:35;7.60;99.90
4520;DHT22;2272;49.226;8.108;2023-01-08T01:07:03;7.60;99.90
4520;DHT22;2272;49.226;8.108;2023-01-08T01:09:30;7.60;99.90
4520;DHT22;2272;49.226;8.108;2023-01-08T01:11:57;7.60;99.90
4520;DHT22;2272;49.226;8.108;2023-01-08T01:14:23;7.60;99.90
4520;DHT22;2272;49.226;8.108;2023-01-08T01:16:50;7.60;99.90
4520;DHT22;2272;49.226;8.108;2023-01-08T01:19:17;7.60;99.90
4520;DHT22;2272;49.226;8.108;2023-01-08T01:21:43;7.60;99.90
4520;DHT22;2272;49.226;8.108;2023-01-08T01:24:12;7.50;99.90
4520;DHT22;2272;49.226;8.108;2023-01-08T01:26:40;7.50;99.90
4520;DHT22;2272;49.226;8.108;2023-01-08T01:29:06;7.50;99.90
4520;DHT22;2272;49.226;8.108;2023-01-08T01:31:33;7.50;99.90
4520;DHT22;2272;49.226;8.108;2023-01-08T01:34:00;7.60;99.90
4520;DHT22;2272;49.226;8.108;2023-01-08T01:36:27;7.60;99.90
4520;DHT22;2272;49.226;8.108;2023-01-08T01:38:55;7.60;99.90
4520;DHT22;2272;49.226;8.108;2023-01-08T01:41:26;7.70;99.90
4520;DHT22;2272;49.226;8.108;2023-01-08T01:43:54;7.70;99.90
4520;DHT22;2272;49.226;8.108;2023-01-08T01:46:32;7.80;99.90
4520;DHT22;2272;49.226;8.108;2023-01-08T01:49:04;7.80;99.90
4520;DHT22;2272;49.226;8.108;2023-01-08T01:51:33;7.80;99.90
4520;DHT22;2272;49.226;8.108;2023-01-08T01:54:03;7.80;99.90
4520;DHT22;2272;49.226;8.108;2023-01-08T01:56:32;7.80;99.90
4520;DHT22;2272;49.226;8.108;2023-01-08T01:58:59;7.80;99.90
4520;DHT22;2272;49.226;8.108;2023-01-08T02:01:27;7.80;99.90
4520;DHT22;2272;49.226;8.108;2023-01-08T02:03:55;7.80;99.90
4520;DHT22;2272;49.226;8.108;2023-01-08T02:06:32;7.80;99.90
4520;DHT22;2272;49.226;8.108;2023-01-08T02:09:02;7.80;99.90
4520;DHT22;2272;49.226;8.108;2023-01-08T02:11:40;7.80;99.90
4520;DHT22;2272;49.226;8.108;2023-01-08T02:14:14;7.80;99.90
4520;DHT22;2272;49.226;8.108;2023-01-08T02:16:46;7.80;99.90
4520;DHT22;2272;49.226;8.108;2023-01-08T02:19:19;7.80;99.90
4520;DHT22;2272;49.226;8.108;2023-01-08T02:22:00;7.80;99.90
4520;DHT22;2272;49.226;8.108;2023-01-08T02:24:38;7.80;99.90
4520;DHT22;2272;49.226;8.108;2023-01-08T02:27:10;7.80;99.90
4520;DHT22;2272;49.226;8.108;2023-01-08T02:29:38;7.70;99.90
4520;DHT22;2272;49.226;8.108;2023-01-08T02:32:06;7.60;99.90
4520;DHT22;2272;49.226;8.108;2023-01-08T02:34:33;7.60;99.90
4520;DHT22;2272;49.226;8.108;2023-01-08T02:36:59;7.50;99.90
4520;DHT22;2272;49.226;8.108;2023-01-08T02:39:39;7.40;99.90
4520;DHT22;2272;49.226;8.108;2023-01-08T02:42:15;7.40;99.90
4520;DHT22;2272;49.226;8.108;2023-01-08T02:44:53;7.30;99.90
4520;DHT22;2272;49.226;8.108;2023-01-08T02:47:26;7.30;99.90
4520;DHT22;2272;49.226;8.108;2023-01-08T02:50:07;7.30;99.90
4520;DHT22;2272;49.226;8.108;2023-01-08T02:52:41;7.20;99.90
4520;DHT22;2272;49.226;8.108;2023-01-08T02:55:11;7.20;99.90
4520;DHT22;2272;49.226;8.108;2023-01-08T02:57:39;7.20;99.90
4520;DHT22;2272;49.226;8.108;2023-01-08T03:00:07;7.20;99.90
4520;DHT22;2272;49.226;8.108;2023-01-08T03:02:34;7.20;99.90
4520;DHT22;2272;49.226;8.108;2023-01-08T03:05:08;7.20;99.90
4520;DHT22;2272;49.226;8.108;2023-01-08T03:07:36;7.20;99.90
4520;DHT22;2272;49.226;8.108;2023-01-08T03:10:04;7.30;99.90
4520;DHT22;2272;49.226;8.108;2023-01-08T03:12:41;7.30;99.90
4520;DHT22;2272;49.226;8.108;2023-01-08T03:15:12;7.30;99.90
4520;DHT22;2272;49.226;8.108;2023-01-08T03:17:43;7.30;99.90
4520;DHT22;2272;49.226;8.108;2023-01-08T03:20:14;7.30;99.90
4520;DHT22;2272;49.226;8.108;2023-01-08T03:22:44;7.40;99.90
4520;DHT22;2272;49.226;8.108;2023-01-08T03:25:13;7.40;99.90
4520;DHT22;2272;49.226;8.108;2023-01-08T03:27:46;7.40;99.90
4520;DHT22;2272;49.226;8.108;2023-01-08T03:30:15;7.40;99.90
4520;DHT22;2272;49.226;8.108;2023-01-08T03:32:44;7.40;99.90
4520;DHT22;2272;49.226;8.108;2023-01-08T03:35:16;7.40;99.90
4520;DHT22;2272;49.226;8.108;2023-01-08T03:37:48;7.40;99.90
4520;DHT22;2272;49.226;8.108;2023-01-08T03:40:19;7.40;99.90
4520;DHT22;2272;49.226;8.108;2023-01-08T03:42:48;7.40;99.90
4520;DHT22;2272;49.226;8.108;2023-01-08T03:45:15;7.40;99.90
4520;DHT22;2272;49.226;8.108;2023-01-08T03:47:43;7.40;99.90
4520;DHT22;2272;49.226;8.108;2023-01-08T03:50:14;7.40;99.90
4520;DHT22;2272;49.226;8.108;2023-01-08T03:52:42;7.40;99.90
4520;DHT22;2272;49.226;8.108;2023-01-08T03:55:09;7.40;99.90
4520;DHT22;2272;49.226;8.108;2023-01-08T03:57:35;7.40;99.90
4520;DHT22;2272;49.226;8.108;2023-01-08T04:00:05;7.40;99.90
4520;DHT22;2272;49.226;8.108;2023-01-08T04:02:32;7.40;99.90
4520;DHT22;2272;49.226;8.108;2023-01-08T04:04:58;7.40;99.90
4520;DHT22;2272;49.226;8.108;2023-01-08T04:07:25;7.40;99.90
4520;DHT22;2272;49.226;8.108;2023-01-08T04:09:52;7.40;99.90
4520;DHT22;2272;49.226;8.108;2023-01-08T04:12:18;7.40;99.90
4520;DHT22;2272;49.226;8.108;2023-01-08T04:14:45;7.40;99.90
4520;DHT22;2272;49.226;8.108;2023-01-08T04:17:13;7.40;99.90
4520;DHT22;2272;49.226;8.108;2023-01-08T04:19:40;7.40;99.90
4520;DHT22;2272;49.226;8.108;2023-01-08T04:22:08;7.40;99.90
4520;DHT22;2272;49.226;8.108;2023-01-08T04:24:35;7.40;99.90
4520;DHT22;2272;49.226;8.108;2023-01-08T04:27:02;7.50;99.90
4520;DHT22;2272;49.226;8.108;2023-01-08T04:29:29;7.50;99.90
4520;DHT22;2272;49.226;8.108;2023-01-08T04:31:55;7.60;99.90
4520;DHT22;2272;49.226;8.108;2023-01-08T04:34:23;7.70;99.90
4520;DHT22;2272;49.226;8.108;2023-01-08T04:36:50;7.90;99.90
4520;DHT22;2272;49.226;8.108;2023-01-08T04:39:16;7.90;99.90
4520;DHT22;2272;49.226;8.108;2023-01-08T04:41:43;8.00;99.90
4520;DHT22;2272;49.226;8.108;2023-01-08T04:44:10;8.10;99.90
4520;DHT22;2272;49.226;8.108;2023-01-08T04:46:36;8.10;99.90
4520;DHT22;2272;49.226;8.108;2023-01-08T04:49:03;8.20;99.90
4520;DHT22;2272;49.226;8.108;2023-01-08T04:51:31;8.20;99.90
4520;DHT22;2272;49.226;8.108;2023-01-08T04:53:58;8.30;99.90
4520;DHT22;2272;49.226;8.108;2023-01-08T04:56:24;8.30;99.90
4520;DHT22;2272;49.226;8.108;2023-01-08T04:58:51;8.30;99.90
4520;DHT22;2272;49.226;8.108;2023-01-08T05:01:20;8.30;99.90
4520;DHT22;2272;49.226;8.108;2023-01-08T05:03:52;8.30;99.90
4520;DHT22;2272;49.226;8.108;2023-01-08T05:06:19;8.20;99.90
4520;DHT22;2272;49.226;8.108;2023-01-08T05:08:47;8.20;99.90
4520;DHT22;2272;49.226;8.108;2023-01-08T05:11:14;8.20;99.90
4520;DHT22;2272;49.226;8.108;2023-01-08T05:13:41;8.10;99.90
4520;DHT22;2272;49.226;8.108;2023-01-08T05:16:08;8.10;99.90
4520;DHT22;2272;49.226;8.108;2023-01-08T05:18:34;8.00;99.90
4520;DHT22;2272;49.226;8.108;2023-01-08T05:21:02;7.90;99.90
4520;DHT22;2272;49.226;8.108;2023-01-08T05:23:29;7.90;99.90
4520;DHT22;2272;49.226;8.108;2023-01-08T05:25:58;7.80;99.90
4520;DHT22;2272;49.226;8.108;2023-01-08T05:28:26;7.80;99.90
4520;DHT22;2272;49.226;8.108;2023-01-08T05:30:52;7.80;99.90
4520;DHT22;2272;49.226;8.108;2023-01-08T05:33:19;7.80;99.90
4520;DHT22;2272;49.226;8.108;2023-01-08T05:35:46;7.70;99.90
4520;DHT22;2272;49.226;8.108;2023-01-08T05:38:13;7.70;99.90
4520;DHT22;2272;49.226;8.108;2023-01-08T05:40:40;7.70;99.90
4520;DHT22;2272;49.226;8.108;2023-01-08T05:43:08;7.70;99.90
4520;DHT22;2272;49.226;8.108;2023-01-08T05:45:34;7.60;99.90
4520;DHT22;2272;49.226;8.108;2023-01-08T05:48:04;7.50;99.90
4520;DHT22;2272;49.226;8.108;2023-01-08T05:50:32;7.50;99.90
4520;DHT22;2272;49.226;8.108;2023-01-08T05:52:58;7.50;99.90
4520;DHT22;2272;49.226;8.108;2023-01-08T05:55:25;7.40;99.90
4520;DHT22;2272;49.226;8.108;2023-01-08T05:57:52;7.40;99.90
4520;DHT22;2272;49.226;8.108;2023-01-08T06:00:20;7.40;99.90
4520;DHT22;2272;49.226;8.108;2023-01-08T06:02:48;7.40;99.90
4520;DHT22;2272;49.226;8.108;2023-01-08T06:05:15;7.40;99.90
4520;DHT22;2272;49.226;8.108;2023-01-08T06:07:42;7.30;99.90
4520;DHT22;2272;49.226;8.108;2023-01-08T06:10:09;7.30;99.90
4520;DHT22;2272;49.226;8.108;2023-01-08T06:12:35;7.20;99.90
4520;DHT22;2272;49.226;8.108;2023-01-08T06:15:03;7.10;99.90
4520;DHT22;2272;49.226;8.108;2023-01-08T06:17:31;7.10;99.90
4520;DHT22;2272;49.226;8.108;2023-01-08T06:19:59;7.10;99.90
4520;DHT22;2272;49.226;8.108;2023-01-08T06:22:26;7.10;99.90
4520;DHT22;2272;49.226;8.108;2023-01-08T06:24:53;7.00;99.90
4520;DHT22;2272;49.226;8.108;2023-01-08T06:27:19;7.00;99.90
4520;DHT22;2272;49.226;8.108;2023-01-08T06:29:46;7.00;99.90
4520;DHT22;2272;49.226;8.108;2023-01-08T06:32:13;7.00;99.90
4520;DHT22;2272;49.226;8.108;2023-01-08T06:34:41;7.00;99.90
4520;DHT22;2272;49.226;8.108;2023-01-08T06:37:07;7.00;99.90
4520;DHT22;2272;49.226;8.108;2023-01-08T06:39:34;7.00;99.90
4520;DHT22;2272;49.226;8.108;2023-01-08T06:42:01;7.00;99.90
4520;DHT22;2272;49.226;8.108;2023-01-08T06:44:27;7.00;99.90
4520;DHT22;2272;49.226;8.108;2023-01-08T06:46:54;7.10;99.90
4520;DHT22;2272;49.226;8.108;2023-01-08T06:49:21;7.10;99.90
4520;DHT22;2272;49.226;8.108;2023-01-08T06:51:49;7.10;99.90
4520;DHT22;2272;49.226;8.108;2023-01-08T06:54:16;7.10;99.90
4520;DHT22;2272;49.226;8.108;2023-01-08T06:56:42;7.10;99.90
4520;DHT22;2272;49.226;8.108;2023-01-08T06:59:09;7.10;99.90
4520;DHT22;2272;49.226;8.108;2023-01-08T07:01:35;7.20;99.90
4520;DHT22;2272;49.226;8.108;2023-01-08T07:04:02;7.20;99.90
4520;DHT22;2272;49.226;8.108;2023-01-08T07:06:29;7.20;99.90
4520;DHT22;2272;49.226;8.108;2023-01-08T07:08:57;7.20;99.90
4520;DHT22;2272;49.226;8.108;2023-01-08T07:11:24;7.20;99.90
4520;DHT22;2272;49.226;8.108;2023-01-08T07:13:50;7.20;99.90
4520;DHT22;2272;49.226;8.108;2023-01-08T07:16:17;7.20;99.90
4520;DHT22;2272;49.226;8.108;2023-01-08T07:18:44;7.20;99.90
4520;DHT22;2272;49.226;8.108;2023-01-08T07:21:10;7.20;99.90
4520;DHT22;2272;49.226;8.108;2023-01-08T07:23:37;7.20;99.90
4520;DHT22;2272;49.226;8.108;2023-01-08T07:26:06;7.20;99.90
4520;DHT22;2272;49.226;8.108;2023-01-08T07:28:33;7.20;99.90
4520;DHT22;2272;49.226;8.108;2023-01-08T07:31:02;7.20;99.90
4520;DHT22;2272;49.226;8.108;2023-01-08T07:33:29;7.20;99.90
4520;DHT22;2272;49.226;8.108;2023-01-08T07:35:56;7.30;99.90
4520;DHT22;2272;49.226;8.108;2023-01-08T07:38:23;7.30;99.90
4520;DHT22;2272;49.226;8.108;2023-01-08T07:40:50;7.30;99.90
4520;DHT22;2272;49.226;8.108;2023-01-08T07:43:18;7.30;99.90
4520;DHT22;2272;49.226;8.108;2023-01-08T07:45:45;7.30;99.90
4520;DHT22;2272;49.226;8.108;2023-01-08T07:48:12;7.30;99.90
4520;DHT22;2272;49.226;8.108;2023-01-08T07:50:40;7.30;99.90
4520;DHT22;2272;49.226;8.108;2023-01-08T07:53:08;7.30;99.90
4520;DHT22;2272;49.226;8.108;2023-01-08T07:55:34;7.30;99.90
4520;DHT22;2272;49.226;8.108;2023-01-08T07:58:06;7.40;99.90
4520;DHT22;2272;49.226;8.108;2023-01-08T08:00:34;7.40;99.90
4520;DHT22;2272;49.226;8.108;2023-01-08T08:03:02;7.40;99.90
4520;DHT22;2272;49.226;8.108;2023-01-08T08:05:29;7.40;99.90
4520;DHT22;2272;49.226;8.108;2023-01-08T08:07:55;7.40;99.90
4520;DHT22;2272;49.226;8.108;2023-01-08T08:10:22;7.40;99.90
4520;DHT22;2272;49.226;8.108;2023-01-08T08:12:49;7.40;99.90
4520;DHT22;2272;49.226;8.108;2023-01-08T08:15:16;7.40;99.90
4520;DHT22;2272;49.226;8.108;2023-01-08T08:17:45;7.40;99.90
4520;DHT22;2272;49.226;8.108;2023-01-08T08:20:12;7.40;99.90
4520;DHT22;2272;49.226;8.108;2023-01-08T08:22:39;7.40;99.90
4520;DHT22;2272;49.226;8.108;2023-01-08T08:25:06;7.40;99.90
4520;DHT22;2272;49.226;8.108;2023-01-08T08:27:33;7.40;99.90
4520;DHT22;2272;49.226;8.108;2023-01-08T08:29:59;7.50;99.90
4520;DHT22;2272;49.226;8.108;2023-01-08T08:32:26;7.50;99.90
4520;DHT22;2272;49.226;8.108;2023-01-08T08:34:54;7.50;99.90
4520;DHT22;2272;49.226;8.108;2023-01-08T08:37:21;7.50;99.90
4520;DHT22;2272;49.226;8.108;2023-01-08T08:39:47;7.50;99.90
4520;DHT22;2272;49.226;8.108;2023-01-08T08:42:14;7.60;99.90
4520;DHT22;2272;49.226;8.108;2023-01-08T08:44:41;7.60;99.90
4520;DHT22;2272;49.226;8.108;2023-01-08T08:47:07;7.60;99.90
4520;DHT22;2272;49.226;8.108;2023-01-08T08:49:34;7.60;99.90
4520;DHT22;2272;49.226;8.108;2023-01-08T08:52:03;7.70;99.90
4520;DHT22;2272;49.226;8.108;2023-01-08T08:54:30;7.70;99.90
4520;DHT22;2272;49.226;8.108;2023-01-08T08:56:57;7.70;99.90
4520;DHT22;2272;49.226;8.108;2023-01-08T08:59:23;7.80;99.90
4520;DHT22;2272;49.226;8.108;2023-01-08T09:01:50;7.90;99.90
4520;DHT22;2272;49.226;8.108;2023-01-08T09:04:17;7.90;99.90
4520;DHT22;2272;49.226;8.108;2023-01-08T09:06:43;7.90;99.90
4520;DHT22;2272;49.226;8.108;2023-01-08T09:09:11;8.00;99.90
4520;DHT22;2272;49.226;8.108;2023-01-08T09:11:39;8.00;99.90
4520;DHT22;2272;49.226;8.108;2023-01-08T09:14:06;8.00;99.90
4520;DHT22;2272;49.226;8.108;2023-01-08T09:16:33;8.00;99.90
4520;DHT22;2272;49.226;8.108;2023-01-08T09:19:01;8.10;99.90
4520;DHT22;2272;49.226;8.108;2023-01-08T09:21:28;8.10;99.90
4520;DHT22;2272;49.226;8.108;2023-01-08T09:23:54;8.10;99.90
4520;DHT22;2272;49.226;8.108;2023-01-08T09:26:22;8.20;99.90
4520;DHT22;2272;49.226;8.108;2023-01-08T09:28:49;8.20;99.90
4520;DHT22;2272;49.226;8.108;2023-01-08T09:31:16;8.30;99.90
4520;DHT22;2272;49.226;8.108;2023-01-08T09:33:42;8.30;99.90
4520;DHT22;2272;49.226;8.108;2023-01-08T09:36:09;8.40;99.90
4520;DHT22;2272;49.226;8.108;2023-01-08T09:38:36;8.40;99.90
4520;DHT22;2272;49.226;8.108;2023-01-08T09:41:06;8.40;99.90
4520;DHT22;2272;49.226;8.108;2023-01-08T09:43:37;8.40;99.90
4520;DHT22;2272;49.226;8.108;2023-01-08T09:46:07;8.50;99.90
4520;DHT22;2272;49.226;8.108;2023-01-08T09:48:37;8.50;99.90
4520;DHT22;2272;49.226;8.108;2023-01-08T09:51:08;8.50;99.90
4520;DHT22;2272;49.226;8.108;2023-01-08T09:53:35;8.50;99.90
4520;DHT22;2272;49.226;8.108;2023-01-08T09:56:05;8.60;99.90
4520;DHT22;2272;49.226;8.108;2023-01-08T09:58:38;8.60;99.90
4520;DHT22;2272;49.226;8.108;2023-01-08T10:01:08;8.70;99.90
4520;DHT22;2272;49.226;8.108;2023-01-08T10:03:39;8.70;99.90
4520;DHT22;2272;49.226;8.108;2023-01-08T10:06:10;8.80;99.90
4520;DHT22;2272;49.226;8.108;2023-01-08T10:08:37;8.80;99.90
4520;DHT22;2272;49.226;8.108;2023-01-08T10:11:04;8.80;99.90
4520;DHT22;2272;49.226;8.108;2023-01-08T10:13:32;8.90;99.90
4520;DHT22;2272;49.226;8.108;2023-01-08T10:16:02;8.90;99.90
4520;DHT22;2272;49.226;8.108;2023-01-08T10:18:32;8.90;99.90
4520;DHT22;2272;49.226;8.108;2023-01-08T10:21:00;9.00;99.90
4520;DHT22;2272;49.226;8.108;2023-01-08T10:23:26;9.00;99.90
4520;DHT22;2272;49.226;8.108;2023-01-08T10:25:55;9.10;99.90
4520;DHT22;2272;49.226;8.108;2023-01-08T10:28:23;9.20;99.90
4520;DHT22;2272;49.226;8.108;2023-01-08T10:30:51;9.30;99.90
4520;DHT22;2272;49.226;8.108;2023-01-08T10:33:23;9.40;99.90
4520;DHT22;2272;49.226;8.108;2023-01-08T10:35:53;9.40;99.90
4520;DHT22;2272;49.226;8.108;2023-01-08T10:38:25;9.50;99.90
4520;DHT22;2272;49.226;8.108;2023-01-08T10:40:52;9.50;99.90
4520;DHT22;2272;49.226;8.108;2023-01-08T10:43:21;9.60;99.90
4520;DHT22;2272;49.226;8.108;2023-01-08T10:45:55;9.90;99.90
4520;DHT22;2272;49.226;8.108;2023-01-08T10:48:29;10.20;99.90
4520;DHT22;2272;49.226;8.108;2023-01-08T10:51:04;10.50;99.90
4520;DHT22;2272;49.226;8.108;2023-01-08T10:53:31;10.60;99.90
4520;DHT22;2272;49.226;8.108;2023-01-08T10:55:59;10.60;99.90
4520;DHT22;2272;49.226;8.108;2023-01-08T10:58:26;10.60;99.90
4520;DHT22;2272;49.226;8.108;2023-01-08T11:00:53;10.50;99.90
4520;DHT22;2272;49.226;8.108;2023-01-08T11:03:27;10.40;99.90
4520;DHT22;2272;49.226;8.108;2023-01-08T11:05:55;10.40;99.90
4520;DHT22;2272;49.226;8.108;2023-01-08T11:08:22;10.40;99.90
4520;DHT22;2272;49.226;8.108;2023-01-08T11:10:54;10.40;99.90
4520;DHT22;2272;49.226;8.108;2023-01-08T11:13:21;10.50;99.90
4520;DHT22;2272;49.226;8.108;2023-01-08T11:16:01;10.70;99.90
4520;DHT22;2272;49.226;8.108;2023-01-08T11:18:29;10.80;99.90
4520;DHT22;2272;49.226;8.108;2023-01-08T11:21:06;11.00;99.90
4520;DHT22;2272;49.226;8.108;2023-01-08T11:23:33;11.00;99.90
4520;DHT22;2272;49.226;8.108;2023-01-08T11:26:05;11.00;99.90
4520;DHT22;2272;49.226;8.108;2023-01-08T11:28:45;11.10;99.90
4520;DHT22;2272;49.226;8.108;2023-01-08T11:31:16;11.20;99.90
4520;DHT22;2272;49.226;8.108;2023-01-08T11:33:46;11.20;99.90
4520;DHT22;2272;49.226;8.108;2023-01-08T11:36:21;11.30;99.90
4520;DHT22;2272;49.226;8.108;2023-01-08T11:38:49;11.40;99.90
4520;DHT22;2272;49.226;8.108;2023-01-08T11:41:29;11.60;99.90
4520;DHT22;2272;49.226;8.108;2023-01-08T11:44:13;11.90;99.90
4520;DHT22;2272;49.226;8.108;2023-01-08T11:46:49;12.10;99.90
4520;DHT22;2272;49.226;8.108;2023-01-08T11:52:33;12.50;99.90
4520;DHT22;2272;49.226;8.108;2023-01-08T11:58:12;12.20;99.90
4520;DHT22;2272;49.226;8.108;2023-01-08T12:00:59;12.20;99.90
4520;DHT22;2272;49.226;8.108;2023-01-08T12:03:33;12.30;99.90
4520;DHT22;2272;49.226;8.108;2023-01-08T12:06:12;12.20;99.90
4520;DHT22;2272;49.226;8.108;2023-01-08T12:08:53;12.00;99.90
4520;DHT22;2272;49.226;8.108;2023-01-08T12:11:24;12.00;99.90
4520;DHT22;2272;49.226;8.108;2023-01-08T12:14:03;11.90;99.90
4520;DHT22;2272;49.226;8.108;2023-01-08T12:16:41;12.00;99.90
4520;DHT22;2272;49.226;8.108;2023-01-08T12:19:19;11.90;99.90
4520;DHT22;2272;49.226;8.108;2023-01-08T12:22:02;11.80;99.90
4520;DHT22;2272;49.226;8.108;2023-01-08T12:24:48;11.70;99.90
4520;DHT22;2272;49.226;8.108;2023-01-08T12:27:23;11.70;99.90
4520;DHT22;2272;49.226;8.108;2023-01-08T12:29:59;11.80;99.90
4520;DHT22;2272;49.226;8.108;2023-01-08T12:32:32;11.70;99.90
4520;DHT22;2272;49.226;8.108;2023-01-08T12:35:07;11.70;99.90
4520;DHT22;2272;49.226;8.108;2023-01-08T12:37:41;11.60;99.90
4520;DHT22;2272;49.226;8.108;2023-01-08T12:40:15;11.60;99.90
4520;DHT22;2272;49.226;8.108;2023-01-08T12:42:44;11.60;99.90
4520;DHT22;2272;49.226;8.108;2023-01-08T12:45:16;11.50;99.90
4520;DHT22;2272;49.226;8.108;2023-01-08T12:47:46;11.40;99.90
4520;DHT22;2272;49.226;8.108;2023-01-08T12:50:31;11.40;99.90
4520;DHT22;2272;49.226;8.108;2023-01-08T12:53:05;11.50;99.90
4520;DHT22;2272;49.226;8.108;2023-01-08T12:55:41;11.50;99.90
4520;DHT22;2272;49.226;8.108;2023-01-08T12:58:21;11.50;99.90
4520;DHT22;2272;49.226;8.108;2023-01-08T13:00:55;11.80;99.90
4520;DHT22;2272;49.226;8.108;2023-01-08T13:03:25;12.00;99.90
4520;DHT22;2272;49.226;8.108;2023-01-08T13:06:04;12.00;99.90
4520;DHT22;2272;49.226;8.108;2023-01-08T13:08:35;11.70;99.90
4520;DHT22;2272;49.226;8.108;2023-01-08T13:11:02;11.40;99.90
4520;DHT22;2272;49.226;8.108;2023-01-08T13:13:31;11.10;99.90
4520;DHT22;2272;49.226;8.108;2023-01-08T13:16:16;11.00;99.90
4520;DHT22;2272;49.226;8.108;2023-01-08T13:18:51;10.90;99.90
4520;DHT22;2272;49.226;8.108;2023-01-08T13:21:27;10.70;99.90
4520;DHT22;2272;49.226;8.108;2023-01-08T13:24:04;10.50;99.90
4520;DHT22;2272;49.226;8.108;2023-01-08T13:26:33;10.50;99.90
4520;DHT22;2272;49.226;8.108;2023-01-08T13:29:21;10.60;99.90
4520;DHT22;2272;49.226;8.108;2023-01-08T13:31:49;10.70;99.90
4520;DHT22;2272;49.226;8.108;2023-01-08T13:34:21;10.70;99.90
4520;DHT22;2272;49.226;8.108;2023-01-08T13:36:55;10.70;99.90
4520;DHT22;2272;49.226;8.108;2023-01-08T13:39:30;10.90;99.90
4520;DHT22;2272;49.226;8.108;2023-01-08T13:41:59;10.80;99.90
4520;DHT22;2272;49.226;8.108;2023-01-08T13:44:29;10.70;99.90
4520;DHT22;2272;49.226;8.108;2023-01-08T13:46:58;10.50;99.90
4520;DHT22;2272;49.226;8.108;2023-01-08T13:49:27;10.40;99.90
4520;DHT22;2272;49.226;8.108;2023-01-08T13:51:57;10.40;99.90
4520;DHT22;2272;49.226;8.108;2023-01-08T13:54:32;10.50;99.90
4520;DHT22;2272;49.226;8.108;2023-01-08T13:57:11;10.50;99.90
4520;DHT22;2272;49.226;8.108;2023-01-08T13:59:40;10.50;99.90
4520;DHT22;2272;49.226;8.108;2023-01-08T14:02:33;10.60;99.90
4520;DHT22;2272;49.226;8.108;2023-01-08T14:05:01;10.50;99.90
4520;DHT22;2272;49.226;8.108;2023-01-08T14:07:28;10.50;99.90
4520;DHT22;2272;49.226;8.108;2023-01-08T14:10:05;10.40;99.90
4520;DHT22;2272;49.226;8.108;2023-01-08T14:12:33;10.40;99.90
4520;DHT22;2272;49.226;8.108;2023-01-08T14:15:00;10.40;99.90
4520;DHT22;2272;49.226;8.108;2023-01-08T14:17:29;10.50;99.90
4520;DHT22;2272;49.226;8.108;2023-01-08T14:19:57;10.60;99.90
4520;DHT22;2272;49.226;8.108;2023-01-08T14:22:28;10.60;99.90
4520;DHT22;2272;49.226;8.108;2023-01-08T14:25:00;10.50;99.90
4520;DHT22;2272;49.226;8.108;2023-01-08T14:27:29;10.40;99.90
4520;DHT22;2272;49.226;8.108;2023-01-08T14:29:56;10.20;99.90
4520;DHT22;2272;49.226;8.108;2023-01-08T14:32:25;10.00;99.90
4520;DHT22;2272;49.226;8.108;2023-01-08T14:34:53;9.90;99.90
4520;DHT22;2272;49.226;8.108;2023-01-08T14:37:21;9.80;99.90
4520;DHT22;2272;49.226;8.108;2023-01-08T14:39:47;9.70;99.90
4520;DHT22;2272;49.226;8.108;2023-01-08T14:42:19;9.70;99.90
4520;DHT22;2272;49.226;8.108;2023-01-08T14:45:07;9.70;99.90
4520;DHT22;2272;49.226;8.108;2023-01-08T14:47:38;9.90;99.90
4520;DHT22;2272;49.226;8.108;2023-01-08T14:50:17;9.90;99.90
4520;DHT22;2272;49.226;8.108;2023-01-08T14:52:44;9.80;99.90
4520;DHT22;2272;49.226;8.108;2023-01-08T14:55:13;9.70;99.90
4520;DHT22;2272;49.226;8.108;2023-01-08T14:57:44;9.60;99.90
4520;DHT22;2272;49.226;8.108;2023-01-08T15:00:16;9.50;99.90
4520;DHT22;2272;49.226;8.108;2023-01-08T15:02:45;9.50;99.90
4520;DHT22;2272;49.226;8.108;2023-01-08T15:05:15;9.60;99.90
4520;DHT22;2272;49.226;8.108;2023-01-08T15:07:52;9.40;99.90
4520;DHT22;2272;49.226;8.108;2023-01-08T15:10:31;9.30;99.90
4520;DHT22;2272;49.226;8.108;2023-01-08T15:13:00;9.20;99.90
4520;DHT22;2272;49.226;8.108;2023-01-08T15:15:29;9.00;99.90
4520;DHT22;2272;49.226;8.108;2023-01-08T15:17:57;9.00;99.90
4520;DHT22;2272;49.226;8.108;2023-01-08T15:20:27;8.90;99.90
4520;DHT22;2272;49.226;8.108;2023-01-08T15:22:54;8.90;99.90
4520;DHT22;2272;49.226;8.108;2023-01-08T15:25:25;8.90;99.90
4520;DHT22;2272;49.226;8.108;2023-01-08T15:27:56;8.80;99.90
4520;DHT22;2272;49.226;8.108;2023-01-08T15:30:27;8.80;99.90
4520;DHT22;2272;49.226;8.108;2023-01-08T15:33:05;8.70;99.90
4520;DHT22;2272;49.226;8.108;2023-01-08T15:35:32;8.60;99.90
4520;DHT22;2272;49.226;8.108;2023-01-08T15:37:59;8.50;99.90
4520;DHT22;2272;49.226;8.108;2023-01-08T15:40:26;8.40;99.90
4520;DHT22;2272;49.226;8.108;2023-01-08T15:42:52;8.30;99.90
4520;DHT22;2272;49.226;8.108;2023-01-08T15:45:39;8.20;99.90
4520;DHT22;2272;49.226;8.108;2023-01-08T15:48:06;8.10;99.90
4520;DHT22;2272;49.226;8.108;2023-01-08T15:50:33;8.20;99.90
4520;DHT22;2272;49.226;8.108;2023-01-08T15:53:04;8.20;99.90
4520;DHT22;2272;49.226;8.108;2023-01-08T15:55:32;8.20;99.90
4520;DHT22;2272;49.226;8.108;2023-01-08T15:57:58;8.00;99.90
4520;DHT22;2272;49.226;8.108;2023-01-08T16:00:26;7.80;99.90
4520;DHT22;2272;49.226;8.108;2023-01-08T16:02:54;7.60;99.90
4520;DHT22;2272;49.226;8.108;2023-01-08T16:05:24;7.50;99.90
4520;DHT22;2272;49.226;8.108;2023-01-08T16:07:51;7.40;99.90
4520;DHT22;2272;49.226;8.108;2023-01-08T16:10:18;7.50;99.90
4520;DHT22;2272;49.226;8.108;2023-01-08T16:12:45;7.50;99.90
4520;DHT22;2272;49.226;8.108;2023-01-08T16:15:13;7.40;99.90
4520;DHT22;2272;49.226;8.108;2023-01-08T16:17:41;7.30;99.90
4520;DHT22;2272;49.226;8.108;2023-01-08T16:20:10;7.20;99.90
4520;DHT22;2272;49.226;8.108;2023-01-08T16:22:37;7.20;99.90
4520;DHT22;2272;49.226;8.108;2023-01-08T16:25:05;7.10;99.90
4520;DHT22;2272;49.226;8.108;2023-01-08T16:27:32;7.10;99.90
4520;DHT22;2272;49.226;8.108;2023-01-08T16:29:59;7.10;99.90
4520;DHT22;2272;49.226;8.108;2023-01-08T16:32:25;7.10;99.90
4520;DHT22;2272;49.226;8.108;2023-01-08T16:34:52;7.20;99.90